createdAt,value
2022-11-30T00:01:44.804Z,82018.09
2022-11-30T00:03:36.432Z,82002.25
2022-11-30T00:05:31.662Z,82004.22
2022-11-30T00:07:23.618Z,82006.19
2022-11-30T00:09:15.673Z,81996.31
2022-11-30T00:11:16.063Z,82014.13
2022-11-30T00:13:08.128Z,82022.03
2022-11-30T00:15:00.451Z,82026.00
2022-11-30T00:16:52.390Z,82026.00
2022-11-30T00:18:44.569Z,82014.13
2022-11-30T00:20:36.189Z,82008.19
2022-11-30T00:22:27.655Z,82018.09
2022-11-30T00:24:19.855Z,81998.28
2022-11-30T00:26:15.647Z,81992.34
2022-11-30T00:28:07.982Z,81982.44
2022-11-30T00:30:01.088Z,81990.38
2022-11-30T00:31:54.641Z,81994.31
2022-11-30T00:33:46.859Z,82049.75
2022-11-30T00:35:39.395Z,82006.19
2022-11-30T00:37:31.203Z,81990.38
2022-11-30T00:39:22.968Z,81982.44
2022-11-30T00:41:15.969Z,81982.44
2022-11-30T00:43:10.914Z,81982.44
2022-11-30T00:45:02.706Z,81982.44
2022-11-30T00:46:55.338Z,81994.31
2022-11-30T00:48:47.988Z,82000.25
2022-11-30T00:50:40.182Z,81998.28
2022-11-30T00:52:32.170Z,81996.31
2022-11-30T00:54:24.330Z,81976.50
2022-11-30T00:56:16.781Z,82024.03
2022-11-30T00:58:09.654Z,81962.66
2022-11-30T01:00:01.309Z,81974.53
2022-11-30T01:01:55.443Z,81980.47
2022-11-30T01:03:48.338Z,81994.31
2022-11-30T01:05:40.912Z,81970.56
2022-11-30T01:07:33.417Z,81984.44
2022-11-30T01:09:25.251Z,81962.66
2022-11-30T01:11:25.853Z,81942.84
2022-11-30T01:13:17.559Z,81923.03
2022-11-30T01:15:10.124Z,81907.19
2022-11-30T01:17:02.429Z,81911.16
2022-11-30T01:18:57.758Z,81911.16
2022-11-30T01:20:49.702Z,81895.31
2022-11-30T01:22:44.905Z,81863.63
2022-11-30T01:24:36.727Z,81853.75
2022-11-30T01:26:28.581Z,81839.88
2022-11-30T01:28:20.464Z,81828.00
2022-11-30T01:30:12.873Z,81824.03
2022-11-30T01:32:05.160Z,81820.09
2022-11-30T01:33:57.239Z,81808.19
2022-11-30T01:35:49.228Z,81794.34
2022-11-30T01:37:41.000Z,81778.50
2022-11-30T01:39:33.374Z,81756.72
2022-11-30T01:41:33.414Z,81748.81
2022-11-30T01:43:43.800Z,81736.91
2022-11-30T01:45:35.924Z,81725.03
2022-11-30T01:47:33.963Z,81721.09
2022-11-30T01:49:35.760Z,81713.16
2022-11-30T01:51:35.106Z,81719.09
2022-11-30T01:53:27.327Z,81715.16
2022-11-30T01:55:21.447Z,81709.19
2022-11-30T01:57:36.510Z,81711.19
2022-11-30T01:59:28.811Z,81709.19
2022-11-30T02:01:20.670Z,81689.41
2022-11-30T02:03:35.258Z,81691.38
2022-11-30T02:05:28.507Z,81685.44
2022-11-30T02:07:21.709Z,81683.47
2022-11-30T02:09:15.312Z,81657.72
2022-11-30T02:11:13.691Z,81691.38
2022-11-30T02:13:22.090Z,81709.19
2022-11-30T02:15:22.648Z,81713.16
2022-11-30T02:17:27.097Z,81713.16
2022-11-30T02:19:37.686Z,81711.19
2022-11-30T02:21:47.708Z,81711.19
2022-11-30T02:24:11.753Z,81725.03
2022-11-30T02:26:44.896Z,81738.91
2022-11-30T02:29:04.132Z,81717.13
2022-11-30T02:31:00.191Z,81727.03
2022-11-30T02:33:07.909Z,81713.16
2022-11-30T02:35:03.502Z,81693.38
2022-11-30T02:36:57.133Z,81673.56
2022-11-30T02:38:49.790Z,81671.59
2022-11-30T02:40:41.601Z,81657.72
2022-11-30T02:42:33.801Z,81665.66
2022-11-30T02:44:27.201Z,81667.63
2022-11-30T02:46:26.998Z,81645.84
2022-11-30T02:48:28.046Z,81641.88
2022-11-30T02:50:26.647Z,81649.81
2022-11-30T02:52:22.812Z,81637.94
2022-11-30T02:54:14.807Z,81645.84
2022-11-30T02:56:20.398Z,81637.94
2022-11-30T02:58:14.065Z,81633.97
2022-11-30T03:00:11.404Z,81645.84
2022-11-30T03:02:03.658Z,81649.81
2022-11-30T03:03:55.782Z,81661.69
2022-11-30T03:05:47.805Z,81657.72
2022-11-30T03:07:39.812Z,81649.81
2022-11-30T03:09:31.680Z,81649.81
2022-11-30T03:11:23.504Z,81643.88
2022-11-30T03:13:15.136Z,81632.00
2022-11-30T03:15:10.040Z,81635.94
2022-11-30T03:17:02.551Z,81653.78
2022-11-30T03:18:54.389Z,81655.75
2022-11-30T03:20:46.380Z,81641.88
2022-11-30T03:22:38.496Z,81637.94
2022-11-30T03:24:30.432Z,81630.00
2022-11-30T03:26:22.980Z,81657.72
2022-11-30T03:28:15.915Z,81622.09
2022-11-30T03:30:09.048Z,81626.03
2022-11-30T03:32:00.905Z,81632.00
2022-11-30T03:33:53.392Z,81635.94
2022-11-30T03:35:46.117Z,81633.97
2022-11-30T03:37:38.652Z,81635.94
2022-11-30T03:39:30.369Z,81630.00
2022-11-30T03:41:22.024Z,81630.00
2022-11-30T03:43:13.985Z,81635.94
2022-11-30T03:45:07.034Z,81637.94
2022-11-30T03:46:59.035Z,81639.91
2022-11-30T03:48:50.826Z,81637.94
2022-11-30T03:50:50.185Z,81637.94
2022-11-30T03:52:42.292Z,81635.94
2022-11-30T03:54:34.114Z,81641.88
2022-11-30T03:56:26.673Z,81630.00
2022-11-30T03:58:18.731Z,81624.06
2022-11-30T04:00:11.258Z,81610.22
2022-11-30T04:02:09.219Z,81618.13
2022-11-30T04:04:04.684Z,81641.88
2022-11-30T04:05:57.684Z,81633.97
2022-11-30T04:07:49.336Z,81647.81
2022-11-30T04:09:40.917Z,81661.69
2022-11-30T04:11:32.806Z,81661.69
2022-11-30T04:13:25.661Z,81653.78
2022-11-30T04:15:17.889Z,81651.78
2022-11-30T04:17:10.079Z,81665.66
2022-11-30T04:19:03.142Z,81653.78
2022-11-30T04:20:56.573Z,81655.75
2022-11-30T04:22:48.812Z,81677.53
2022-11-30T04:24:40.702Z,81653.78
2022-11-30T04:26:35.170Z,81635.94
2022-11-30T04:28:27.341Z,81635.94
2022-11-30T04:30:20.195Z,81628.03
2022-11-30T04:32:12.796Z,81637.94
2022-11-30T04:34:04.321Z,81618.13
2022-11-30T04:36:00.494Z,81618.13
2022-11-30T04:37:52.254Z,81600.31
2022-11-30T04:39:44.709Z,81614.16
2022-11-30T04:41:38.367Z,81626.03
2022-11-30T04:43:30.495Z,81598.34
2022-11-30T04:45:22.229Z,81657.72
2022-11-30T04:47:14.314Z,81592.38
2022-11-30T04:49:06.071Z,81602.28
2022-11-30T04:51:06.567Z,81598.34
2022-11-30T04:52:58.979Z,81592.38
2022-11-30T04:54:51.932Z,81574.56
2022-11-30T04:56:43.978Z,81574.56
2022-11-30T04:58:36.045Z,81572.59
2022-11-30T05:00:28.120Z,81582.50
2022-11-30T05:02:19.888Z,81566.66
2022-11-30T05:04:12.799Z,81562.69
2022-11-30T05:06:04.867Z,81576.56
2022-11-30T05:07:58.982Z,81590.41
2022-11-30T05:09:51.096Z,81590.41
2022-11-30T05:11:44.090Z,81570.63
2022-11-30T05:13:35.910Z,81568.63
2022-11-30T05:15:28.334Z,81538.94
2022-11-30T05:17:20.267Z,81531.00
2022-11-30T05:19:13.153Z,81509.25
2022-11-30T05:21:05.274Z,81519.13
2022-11-30T05:22:58.107Z,81503.28
2022-11-30T05:24:50.182Z,81491.41
2022-11-30T05:26:42.388Z,81487.47
2022-11-30T05:28:34.951Z,81503.28
2022-11-30T05:30:27.036Z,81489.44
2022-11-30T05:32:18.802Z,81485.47
2022-11-30T05:34:11.862Z,81432.03
2022-11-30T05:36:10.203Z,81418.16
2022-11-30T05:38:02.910Z,81338.97
2022-11-30T05:39:55.030Z,81273.66
2022-11-30T05:41:48.221Z,81182.56
2022-11-30T05:43:40.541Z,81146.94
2022-11-30T05:45:32.870Z,81174.66
2022-11-30T05:47:24.894Z,81216.22
2022-11-30T05:49:20.236Z,81222.16
2022-11-30T05:51:16.171Z,81238.00
2022-11-30T05:53:08.116Z,81249.88
2022-11-30T05:55:00.636Z,81228.13
2022-11-30T05:56:54.988Z,81263.75
2022-11-30T05:58:48.515Z,81251.88
2022-11-30T06:00:40.953Z,81273.66
2022-11-30T06:02:33.371Z,81299.38
2022-11-30T06:04:25.971Z,81289.47
2022-11-30T06:06:18.160Z,81271.66
2022-11-30T06:08:10.071Z,81238.00
2022-11-30T06:10:02.855Z,81263.75
2022-11-30T06:11:55.290Z,81271.66
2022-11-30T06:13:47.657Z,81263.75
2022-11-30T06:15:46.573Z,81162.78
2022-11-30T06:17:39.699Z,81123.19
2022-11-30T06:19:31.496Z,81099.44
2022-11-30T06:21:24.891Z,80988.56
2022-11-30T06:23:17.546Z,80980.66
2022-11-30T06:25:10.190Z,81012.34
2022-11-30T06:27:05.389Z,81010.34
2022-11-30T06:28:57.582Z,81008.38
2022-11-30T06:30:49.858Z,81075.69
2022-11-30T06:32:46.381Z,81014.31
2022-11-30T06:34:38.260Z,80960.88
2022-11-30T06:36:35.562Z,81002.44
2022-11-30T06:38:28.389Z,81020.25
2022-11-30T06:40:20.810Z,80984.63
2022-11-30T06:42:12.480Z,80976.69
2022-11-30T06:44:09.063Z,80992.53
2022-11-30T06:46:04.333Z,81006.41
2022-11-30T06:47:57.403Z,81055.88
2022-11-30T06:49:49.961Z,81085.56
2022-11-30T06:51:42.997Z,81101.41
2022-11-30T06:53:34.989Z,81034.09
2022-11-30T06:55:27.005Z,81077.66
2022-11-30T06:57:19.337Z,81046.00
2022-11-30T06:59:13.003Z,81038.06
2022-11-30T07:01:06.967Z,81032.13
2022-11-30T07:02:59.594Z,81028.16
2022-11-30T07:04:51.392Z,81067.75
2022-11-30T07:06:44.254Z,81061.81
2022-11-30T07:08:37.278Z,81063.81
2022-11-30T07:10:29.742Z,80998.47
2022-11-30T07:12:21.734Z,80954.94
2022-11-30T07:14:13.647Z,80970.75
2022-11-30T07:16:11.321Z,80945.03
2022-11-30T07:18:06.443Z,80949.00
2022-11-30T07:19:58.194Z,80964.81
2022-11-30T07:21:50.735Z,80992.53
2022-11-30T07:24:01.117Z,80982.63
2022-11-30T07:26:10.113Z,80982.63
2022-11-30T07:28:04.420Z,80958.88
2022-11-30T07:29:56.702Z,80921.28
2022-11-30T07:31:53.072Z,80893.56
2022-11-30T07:33:45.078Z,80875.75
2022-11-30T07:35:36.886Z,80885.66
2022-11-30T07:37:29.881Z,80885.66
2022-11-30T07:39:22.040Z,80857.94
2022-11-30T07:41:14.053Z,80830.22
2022-11-30T07:43:06.491Z,80883.66
2022-11-30T07:44:59.432Z,80889.59
2022-11-30T07:46:52.730Z,80883.66
2022-11-30T07:48:46.522Z,80863.88
2022-11-30T07:50:38.925Z,80873.75
2022-11-30T07:52:31.984Z,80939.09
2022-11-30T07:54:24.029Z,80937.09
2022-11-30T07:56:18.274Z,80939.09
2022-11-30T07:58:15.808Z,80895.53
2022-11-30T08:00:10.688Z,80861.88
2022-11-30T08:02:05.850Z,80893.56
2022-11-30T08:03:59.006Z,80879.69
2022-11-30T08:05:51.335Z,80861.88
2022-11-30T08:07:43.694Z,80830.22
2022-11-30T08:09:36.742Z,80899.50
2022-11-30T08:11:31.761Z,80834.19
2022-11-30T08:13:25.701Z,80814.38
2022-11-30T08:15:21.330Z,80790.63
2022-11-30T08:17:14.960Z,80798.53
2022-11-30T08:19:06.958Z,80796.56
2022-11-30T08:21:04.671Z,80792.59
2022-11-30T08:22:58.887Z,80756.97
2022-11-30T08:24:51.325Z,80798.53
2022-11-30T08:26:43.740Z,80756.97
2022-11-30T08:28:39.287Z,80802.50
2022-11-30T08:30:32.750Z,80840.13
2022-11-30T08:32:24.636Z,80812.41
2022-11-30T08:34:17.544Z,80778.75
2022-11-30T08:36:22.479Z,80774.78
2022-11-30T08:38:14.798Z,80786.66
2022-11-30T08:40:10.250Z,80764.91
2022-11-30T08:42:03.233Z,80753.00
2022-11-30T08:43:55.399Z,80822.28
2022-11-30T08:45:50.376Z,80794.59
2022-11-30T08:47:45.692Z,80737.19
2022-11-30T08:49:37.092Z,80756.97
2022-11-30T08:52:00.879Z,80786.66
2022-11-30T08:53:51.704Z,80814.38
2022-11-30T08:55:44.475Z,80802.50
2022-11-30T08:57:37.140Z,80762.91
2022-11-30T08:59:32.684Z,80796.56
2022-11-30T09:01:28.455Z,80798.53
2022-11-30T09:03:23.705Z,80810.41
2022-11-30T09:05:16.259Z,80814.38
2022-11-30T09:07:11.435Z,80842.09
2022-11-30T09:09:03.404Z,80838.13
2022-11-30T09:10:55.186Z,80774.78
2022-11-30T09:12:47.539Z,80758.97
2022-11-30T09:14:39.749Z,80762.91
2022-11-30T09:16:32.209Z,80768.84
2022-11-30T09:18:24.716Z,80725.31
2022-11-30T09:20:17.584Z,80695.63
2022-11-30T09:22:10.811Z,80679.78
2022-11-30T09:24:06.162Z,80683.75
2022-11-30T09:26:04.571Z,80673.84
2022-11-30T09:27:56.909Z,80675.81
2022-11-30T09:29:51.344Z,80652.06
2022-11-30T09:31:43.591Z,80691.66
2022-11-30T09:33:35.602Z,80679.78
2022-11-30T09:35:26.902Z,80753.00
2022-11-30T09:37:19.471Z,80721.34
2022-11-30T09:39:13.314Z,80711.44
2022-11-30T09:41:34.794Z,80691.66
2022-11-30T09:43:51.711Z,80774.78
2022-11-30T09:45:54.180Z,80762.91
2022-11-30T09:48:01.194Z,80729.25
2022-11-30T09:49:58.778Z,80731.25
2022-11-30T09:51:53.203Z,80739.16
2022-11-30T09:54:07.015Z,80737.19
2022-11-30T09:55:59.550Z,80778.75
2022-11-30T09:57:57.917Z,80806.47
2022-11-30T10:00:06.604Z,80794.59
2022-11-30T10:02:16.497Z,80812.41
2022-11-30T10:04:24.844Z,80790.63
2022-11-30T10:06:42.537Z,80790.63
2022-11-30T10:08:52.595Z,80758.97
2022-11-30T10:10:56.543Z,80756.97
2022-11-30T10:13:23.958Z,80749.06
2022-11-30T10:15:40.717Z,80762.91
2022-11-30T10:17:57.823Z,80780.72
2022-11-30T10:20:01.408Z,80798.53
2022-11-30T10:22:22.284Z,80786.66
2022-11-30T10:24:28.497Z,80808.44
2022-11-30T10:26:56.640Z,80834.19
2022-11-30T10:28:53.644Z,80857.94
2022-11-30T10:30:46.549Z,80826.25
2022-11-30T10:32:41.439Z,80852.00
2022-11-30T10:34:37.158Z,80883.66
2022-11-30T10:36:37.455Z,80921.28
2022-11-30T10:38:41.813Z,80925.22
2022-11-30T10:40:44.806Z,80917.31
2022-11-30T10:42:58.482Z,80889.59
2022-11-30T10:45:03.945Z,80881.69
2022-11-30T10:47:01.831Z,80887.63
2022-11-30T10:49:07.343Z,80895.53
2022-11-30T10:51:02.076Z,80885.66
2022-11-30T10:52:58.077Z,80877.72
2022-11-30T10:54:56.852Z,80863.88
2022-11-30T10:56:51.147Z,80897.53
2022-11-30T10:59:11.318Z,80903.47
2022-11-30T11:01:10.355Z,80913.34
2022-11-30T11:03:03.100Z,80917.31
2022-11-30T11:05:22.190Z,80915.34
2022-11-30T11:07:15.282Z,80913.34
2022-11-30T11:09:39.970Z,80925.22
2022-11-30T11:11:39.853Z,80956.91
2022-11-30T11:13:43.454Z,80954.94
2022-11-30T11:15:35.864Z,80947.00
2022-11-30T11:17:29.338Z,80945.03
2022-11-30T11:20:06.210Z,80954.94
2022-11-30T11:21:58.093Z,80960.88
2022-11-30T11:23:54.076Z,80968.78
2022-11-30T11:25:53.603Z,80976.69
2022-11-30T11:27:52.491Z,80976.69
2022-11-30T11:29:45.074Z,80958.88
2022-11-30T11:31:47.648Z,80974.72
2022-11-30T11:33:51.880Z,80956.91
2022-11-30T11:35:51.253Z,80972.75
2022-11-30T11:37:52.747Z,80964.81
2022-11-30T11:39:55.750Z,80986.59
2022-11-30T11:41:47.742Z,80986.59
2022-11-30T11:44:12.029Z,80980.66
2022-11-30T11:46:15.984Z,80990.56
2022-11-30T11:48:29.144Z,81024.22
2022-11-30T11:52:50.054Z,81026.19
2022-11-30T11:54:44.143Z,81024.22
2022-11-30T11:56:38.018Z,81071.72
2022-11-30T11:58:42.074Z,81020.25
2022-11-30T12:00:34.626Z,81024.22
2022-11-30T12:02:38.605Z,81024.22
2022-11-30T12:04:41.902Z,81028.16
2022-11-30T12:06:35.304Z,81026.19
2022-11-30T12:09:14.250Z,81051.94
2022-11-30T12:11:13.715Z,81040.03
2022-11-30T12:13:38.545Z,81044.00
2022-11-30T12:15:47.726Z,81040.03
2022-11-30T12:17:45.052Z,81044.00
2022-11-30T12:19:53.835Z,81040.03
2022-11-30T12:21:58.185Z,81042.03
2022-11-30T12:24:03.189Z,81036.09
2022-11-30T12:26:11.185Z,81032.13
2022-11-30T12:28:17.642Z,81016.28
2022-11-30T12:30:26.263Z,81006.41
2022-11-30T12:32:34.436Z,81008.38
2022-11-30T12:34:35.057Z,81000.47
2022-11-30T12:36:50.799Z,80990.56
2022-11-30T12:39:09.686Z,80996.50
2022-11-30T12:41:10.536Z,81012.34
2022-11-30T12:43:24.311Z,81000.47
2022-11-30T12:45:23.114Z,80974.72
2022-11-30T12:47:50.618Z,80984.63
2022-11-30T12:50:01.473Z,80984.63
2022-11-30T12:52:00.834Z,80994.50
2022-11-30T12:54:04.719Z,80998.47
2022-11-30T12:56:06.021Z,80978.69
2022-11-30T12:58:08.943Z,80968.78
2022-11-30T13:00:13.271Z,80978.69
2022-11-30T13:02:15.704Z,80988.56
2022-11-30T13:04:26.363Z,81000.47
2022-11-30T13:06:28.265Z,81012.34
2022-11-30T13:08:32.355Z,81006.41
2022-11-30T13:10:30.185Z,80998.47
2022-11-30T13:12:36.557Z,81000.47
2022-11-30T13:14:30.344Z,81044.00
2022-11-30T13:16:25.520Z,81010.34
2022-11-30T13:18:20.962Z,81020.25
2022-11-30T13:20:37.177Z,81008.38
2022-11-30T13:22:44.637Z,81016.28
2022-11-30T13:24:43.524Z,81028.16
2022-11-30T13:27:02.611Z,81032.13
2022-11-30T13:29:16.202Z,81024.22
2022-11-30T13:31:26.647Z,81024.22
2022-11-30T13:33:37.679Z,81018.28
2022-11-30T13:35:29.857Z,81012.34
2022-11-30T13:37:27.561Z,81008.38
2022-11-30T13:39:24.586Z,81008.38
2022-11-30T13:41:21.926Z,81002.44
2022-11-30T13:43:23.353Z,81012.34
2022-11-30T13:45:15.101Z,81038.06
2022-11-30T13:47:27.075Z,81036.09
2022-11-30T13:49:27.660Z,81049.94
2022-11-30T13:51:37.126Z,81020.25
2022-11-30T13:53:37.793Z,81024.22
2022-11-30T13:55:42.593Z,81020.25
2022-11-30T13:57:37.360Z,81008.38
2022-11-30T13:59:36.416Z,81008.38
2022-11-30T14:01:29.442Z,81002.44
2022-11-30T14:03:21.056Z,81024.22
2022-11-30T14:05:18.825Z,81012.34
2022-11-30T14:07:37.481Z,81004.41
2022-11-30T14:09:43.180Z,81016.28
2022-11-30T14:11:43.034Z,81020.25
2022-11-30T14:13:36.576Z,81026.19
2022-11-30T14:15:43.549Z,81020.25
2022-11-30T14:17:36.355Z,81032.13
2022-11-30T14:19:29.487Z,81047.97
2022-11-30T14:21:26.259Z,81008.38
2022-11-30T14:23:40.654Z,81016.28
2022-11-30T14:25:36.101Z,81024.22
2022-11-30T14:27:29.725Z,81028.16
2022-11-30T14:29:37.849Z,81032.13
2022-11-30T14:31:37.748Z,81030.16
2022-11-30T14:33:42.399Z,81038.06
2022-11-30T14:35:35.916Z,81036.09
2022-11-30T14:37:33.575Z,81036.09
2022-11-30T14:39:33.620Z,81040.03
2022-11-30T14:41:30.692Z,81040.03
2022-11-30T14:43:23.280Z,81044.00
2022-11-30T14:45:35.691Z,81040.03
2022-11-30T14:47:32.096Z,81040.03
2022-11-30T14:49:24.694Z,81038.06
2022-11-30T14:51:17.005Z,81038.06
2022-11-30T14:53:30.262Z,81038.06
2022-11-30T14:55:49.076Z,81038.06
2022-11-30T14:58:00.369Z,81034.09
2022-11-30T14:59:56.959Z,81047.97
2022-11-30T15:01:49.349Z,81065.78
2022-11-30T15:03:41.575Z,81077.66
2022-11-30T15:05:34.068Z,81079.63
2022-11-30T15:07:32.592Z,81075.69
2022-11-30T15:09:29.646Z,81079.63
2022-11-30T15:11:22.240Z,81071.72
2022-11-30T15:13:18.202Z,81063.81
2022-11-30T15:15:22.269Z,81063.81
2022-11-30T15:17:15.485Z,81051.94
2022-11-30T15:19:29.148Z,81042.03
2022-11-30T15:21:26.188Z,81028.16
2022-11-30T15:23:19.233Z,81024.22
2022-11-30T15:25:13.800Z,81024.22
2022-11-30T15:27:15.218Z,81018.28
2022-11-30T15:29:17.193Z,81065.78
2022-11-30T15:31:14.487Z,81006.41
2022-11-30T15:33:06.424Z,81024.22
2022-11-30T15:35:01.356Z,81024.22
2022-11-30T15:36:56.031Z,81018.28
2022-11-30T15:38:52.471Z,81024.22
2022-11-30T15:40:47.775Z,81040.03
2022-11-30T15:42:47.628Z,81032.13
2022-11-30T15:44:47.910Z,81018.28
2022-11-30T15:46:46.349Z,81016.28
2022-11-30T15:48:40.961Z,81018.28
2022-11-30T15:50:38.060Z,81026.19
2022-11-30T15:52:35.251Z,81030.16
2022-11-30T15:54:50.584Z,81020.25
2022-11-30T15:56:42.179Z,81020.25
2022-11-30T15:58:45.978Z,81000.47
2022-11-30T16:00:23.031Z,80986.59
2022-11-30T16:02:14.837Z,80964.81
2022-11-30T16:03:59.738Z,80968.78
2022-11-30T16:05:33.101Z,80970.75
2022-11-30T16:07:19.591Z,80968.78
2022-11-30T16:08:54.162Z,80964.81
2022-11-30T16:10:39.971Z,80974.72
2022-11-30T16:12:30.508Z,80980.66
2022-11-30T16:14:03.955Z,80980.66
2022-11-30T16:15:38.002Z,80974.72
2022-11-30T16:17:12.091Z,80976.69
2022-11-30T16:18:46.075Z,80974.72
2022-11-30T16:20:21.215Z,80968.78
2022-11-30T16:21:56.109Z,80964.81
2022-11-30T16:23:30.526Z,80966.81
2022-11-30T16:25:04.242Z,80952.94
2022-11-30T16:26:52.866Z,80945.03
2022-11-30T16:28:26.800Z,80937.09
2022-11-30T16:30:01.093Z,80933.16
2022-11-30T16:31:36.159Z,80929.19
2022-11-30T16:33:20.652Z,80947.00
2022-11-30T16:34:54.919Z,80960.88
2022-11-30T16:36:30.644Z,80941.06
2022-11-30T16:38:04.569Z,80945.03
2022-11-30T16:39:38.138Z,80945.03
2022-11-30T16:41:30.367Z,80952.94
2022-11-30T16:43:04.310Z,80956.91
2022-11-30T16:44:37.980Z,80949.00
2022-11-30T16:46:18.004Z,80968.78
2022-11-30T16:47:52.603Z,80956.91
2022-11-30T16:49:26.145Z,80968.78
2022-11-30T16:51:05.873Z,80960.88
2022-11-30T16:52:39.671Z,80956.91
2022-11-30T16:54:14.888Z,80972.75
2022-11-30T16:55:48.683Z,80964.81
2022-11-30T16:57:22.387Z,80968.78
2022-11-30T16:58:56.469Z,80954.94
2022-11-30T17:00:30.183Z,80956.91
2022-11-30T17:02:04.549Z,80952.94
2022-11-30T17:03:39.011Z,80949.00
2022-11-30T17:05:15.547Z,80933.16
2022-11-30T17:06:51.195Z,80968.78
2022-11-30T17:08:26.219Z,80945.03
2022-11-30T17:10:00.150Z,80939.09
2022-11-30T17:11:37.813Z,80925.22
2022-11-30T17:13:14.953Z,80923.25
2022-11-30T17:14:49.057Z,80925.22
2022-11-30T17:16:30.370Z,80927.22
2022-11-30T17:18:09.029Z,80927.22
2022-11-30T17:19:42.596Z,80935.13
2022-11-30T17:21:20.249Z,80966.81
2022-11-30T17:22:54.136Z,80929.19
2022-11-30T17:24:27.336Z,80931.16
2022-11-30T17:26:03.957Z,80937.09
2022-11-30T17:27:37.604Z,80941.06
2022-11-30T17:29:11.982Z,80929.19
2022-11-30T17:30:45.825Z,80927.22
2022-11-30T17:32:19.271Z,80935.13
2022-11-30T17:33:52.505Z,80925.22
2022-11-30T17:35:26.062Z,80929.19
2022-11-30T17:36:59.566Z,80925.22
2022-11-30T17:38:34.968Z,80913.34
2022-11-30T17:40:09.802Z,80947.00
2022-11-30T17:41:43.760Z,80909.41
2022-11-30T17:43:17.426Z,80915.34
2022-11-30T17:44:51.431Z,80921.28
2022-11-30T17:46:25.206Z,80917.31
2022-11-30T17:47:59.118Z,80929.19
2022-11-30T17:49:32.684Z,80925.22
2022-11-30T17:51:06.342Z,80917.31
2022-11-30T17:52:40.008Z,80929.19
2022-11-30T17:54:15.857Z,80929.19
2022-11-30T17:55:51.886Z,80937.09
2022-11-30T17:57:25.913Z,80945.03
2022-11-30T17:59:03.017Z,80958.88
2022-11-30T18:00:38.734Z,80937.09
2022-11-30T18:02:12.638Z,80921.28
2022-11-30T18:03:46.899Z,80927.22
2022-11-30T18:05:21.828Z,80929.19
2022-11-30T18:07:02.828Z,80927.22
2022-11-30T18:08:38.260Z,80929.19
2022-11-30T18:10:12.438Z,80915.34
2022-11-30T18:11:46.440Z,80933.16
2022-11-30T18:13:20.215Z,80939.09
2022-11-30T18:14:53.600Z,80933.16
2022-11-30T18:16:30.053Z,80949.00
2022-11-30T18:18:03.835Z,80939.09
2022-11-30T18:19:37.691Z,80931.16
2022-11-30T18:21:13.797Z,80921.28
2022-11-30T18:22:47.794Z,80927.22
2022-11-30T18:24:25.288Z,80919.28
2022-11-30T18:25:59.448Z,80945.03
2022-11-30T18:27:33.258Z,80929.19
2022-11-30T18:29:07.690Z,80923.25
2022-11-30T18:30:41.564Z,80929.19
2022-11-30T18:32:15.002Z,80921.28
2022-11-30T18:33:48.500Z,80923.25
2022-11-30T18:35:21.995Z,80925.22
2022-11-30T18:36:55.870Z,80929.19
2022-11-30T18:38:34.302Z,80929.19
2022-11-30T18:40:11.118Z,80921.28
2022-11-30T18:41:45.566Z,80917.31
2022-11-30T18:43:19.218Z,80905.44
2022-11-30T18:44:52.719Z,80909.41
2022-11-30T18:46:26.474Z,80921.28
2022-11-30T18:48:03.698Z,80931.16
2022-11-30T18:49:37.237Z,80925.22
2022-11-30T18:51:21.937Z,80917.31
2022-11-30T18:52:56.746Z,80921.28
2022-11-30T18:54:32.151Z,80935.13
2022-11-30T18:56:10.900Z,80980.66
2022-11-30T18:57:50.577Z,80917.31
2022-11-30T18:59:27.964Z,80921.28
2022-11-30T19:01:14.052Z,80958.88
2022-11-30T19:02:48.726Z,80941.06
2022-11-30T19:04:32.218Z,80935.13
2022-11-30T19:06:17.960Z,80937.09
2022-11-30T19:07:51.805Z,80945.03
2022-11-30T19:09:25.151Z,80937.09
2022-11-30T19:11:06.322Z,80935.13
2022-11-30T19:12:40.376Z,80935.13
2022-11-30T19:14:19.342Z,80923.25
2022-11-30T19:15:53.266Z,80921.28
2022-11-30T19:17:26.810Z,80917.31
2022-11-30T19:19:02.217Z,80919.28
2022-11-30T19:20:41.718Z,80927.22
2022-11-30T19:22:15.064Z,80937.09
2022-11-30T19:23:49.365Z,80952.94
2022-11-30T19:25:31.595Z,80945.03
2022-11-30T19:27:05.528Z,80939.09
2022-11-30T19:28:41.063Z,80933.16
2022-11-30T19:30:15.280Z,80937.09
2022-11-30T19:31:49.226Z,80933.16
2022-11-30T19:33:23.230Z,80933.16
2022-11-30T19:34:56.854Z,80929.19
2022-11-30T19:36:31.791Z,80937.09
2022-11-30T19:38:05.269Z,80964.81
2022-11-30T19:39:38.666Z,80960.88
2022-11-30T19:41:14.110Z,80956.91
2022-11-30T19:42:47.819Z,80949.00
2022-11-30T19:44:21.347Z,80937.09
2022-11-30T19:45:55.504Z,80949.00
2022-11-30T19:47:29.029Z,80972.75
2022-11-30T19:49:03.343Z,80968.78
2022-11-30T19:50:38.191Z,80968.78
2022-11-30T19:52:11.256Z,80964.81
2022-11-30T19:53:45.090Z,80960.88
2022-11-30T19:55:18.791Z,80956.91
2022-11-30T19:56:52.866Z,80960.88
2022-11-30T19:58:26.425Z,80958.88
2022-11-30T19:59:59.627Z,80958.88
2022-11-30T20:01:34.346Z,80945.03
2022-11-30T20:03:10.073Z,80956.91
2022-11-30T20:04:43.576Z,80954.94
2022-11-30T20:06:17.858Z,80964.81
2022-11-30T20:07:51.404Z,80964.81
2022-11-30T20:09:25.182Z,80972.75
2022-11-30T20:10:59.057Z,80960.88
2022-11-30T20:12:32.762Z,80956.91
2022-11-30T20:14:06.863Z,80952.94
2022-11-30T20:15:41.089Z,80960.88
2022-11-30T20:17:14.435Z,80960.88
2022-11-30T20:18:53.957Z,80970.75
2022-11-30T20:20:27.504Z,80974.72
2022-11-30T20:22:04.275Z,80972.75
2022-11-30T20:23:37.441Z,80964.81
2022-11-30T20:25:13.470Z,80972.75
2022-11-30T20:26:47.048Z,80980.66
2022-11-30T20:28:20.485Z,80972.75
2022-11-30T20:29:53.726Z,80968.78
2022-11-30T20:31:28.186Z,80972.75
2022-11-30T20:33:01.778Z,80972.75
2022-11-30T20:34:40.955Z,80990.56
2022-11-30T20:36:20.839Z,80980.66
2022-11-30T20:37:54.626Z,80990.56
2022-11-30T20:39:28.258Z,80986.59
2022-11-30T20:41:01.912Z,80982.63
2022-11-30T20:42:35.484Z,80978.69
2022-11-30T20:44:14.601Z,80980.66
2022-11-30T20:45:48.681Z,80984.63
2022-11-30T20:47:25.365Z,80976.69
2022-11-30T20:48:59.713Z,80980.66
2022-11-30T20:50:33.214Z,80974.72
2022-11-30T20:52:07.387Z,80972.75
2022-11-30T20:53:41.763Z,80962.84
2022-11-30T20:55:15.649Z,80964.81
2022-11-30T20:56:51.348Z,80964.81
2022-11-30T20:58:26.725Z,80960.88
2022-11-30T21:00:00.507Z,80960.88
2022-11-30T21:01:34.483Z,81002.44
2022-11-30T21:03:08.101Z,80960.88
2022-11-30T21:04:41.914Z,80970.75
2022-11-30T21:06:17.145Z,80976.69
2022-11-30T21:07:50.646Z,80986.59
2022-11-30T21:09:24.088Z,80980.66
2022-11-30T21:11:15.234Z,80998.47
2022-11-30T21:12:48.948Z,80990.56
2022-11-30T21:14:22.700Z,80984.63
2022-11-30T21:15:56.340Z,81000.47
2022-11-30T21:17:29.734Z,80980.66
2022-11-30T21:19:03.426Z,80982.63
2022-11-30T21:20:36.693Z,80984.63
2022-11-30T21:22:11.583Z,80984.63
2022-11-30T21:23:46.188Z,81002.44
2022-11-30T21:25:20.021Z,80984.63
2022-11-30T21:26:53.725Z,80984.63
2022-11-30T21:28:27.067Z,80986.59
2022-11-30T21:30:01.295Z,80980.66
2022-11-30T21:31:35.346Z,80988.56
2022-11-30T21:33:08.874Z,80980.66
2022-11-30T21:34:42.451Z,80992.53
2022-11-30T21:36:19.082Z,80988.56
2022-11-30T21:37:52.862Z,81006.41
2022-11-30T21:39:26.536Z,80992.53
2022-11-30T21:41:01.395Z,81006.41
2022-11-30T21:42:34.943Z,81002.44
2022-11-30T21:44:11.944Z,80996.50